createdAt,value
2018-09-12T00:02:21.701Z,20.30
2018-09-12T00:04:58.917Z,20.20
2018-09-12T00:07:36.203Z,20.10
2018-09-12T00:10:13.898Z,20.10
2018-09-12T00:12:49.957Z,20.10
2018-09-12T00:15:26.835Z,20.10
2018-09-12T00:18:04.110Z,20.20
2018-09-12T00:20:40.661Z,20.20
2018-09-12T00:23:16.964Z,20.10
2018-09-12T00:25:54.458Z,20.00
2018-09-12T00:28:31.454Z,20.00
2018-09-12T00:31:08.548Z,19.80
2018-09-12T00:33:46.027Z,19.60
2018-09-12T00:36:22.702Z,19.50
2018-09-12T00:39:00.158Z,19.60
2018-09-12T00:41:37.611Z,19.60
2018-09-12T00:44:14.937Z,19.50
2018-09-12T00:46:52.981Z,19.30
2018-09-12T00:49:31.624Z,19.30
2018-09-12T00:52:07.946Z,19.30
2018-09-12T00:54:45.357Z,19.20
2018-09-12T00:57:23.252Z,19.00
2018-09-12T01:00:01.445Z,18.90
2018-09-12T01:02:39.165Z,18.90
2018-09-12T01:05:15.632Z,18.80
2018-09-12T01:07:51.991Z,18.60
2018-09-12T01:10:29.485Z,18.60
2018-09-12T01:13:06.208Z,18.50
2018-09-12T01:15:43.867Z,18.30
2018-09-12T01:18:21.201Z,18.20
2018-09-12T01:20:57.628Z,18.20
2018-09-12T01:23:34.784Z,18.20
2018-09-12T01:26:11.586Z,18.10
2018-09-12T01:28:48.992Z,18.20
2018-09-12T01:31:26.061Z,18.40
2018-09-12T01:34:02.885Z,18.40
2018-09-12T01:36:39.897Z,18.30
2018-09-12T01:39:17.585Z,18.40
2018-09-12T01:41:54.497Z,18.50
2018-09-12T01:44:30.589Z,18.40
2018-09-12T01:47:07.849Z,18.40
2018-09-12T01:49:45.033Z,18.40
2018-09-12T01:52:21.093Z,18.30
2018-09-12T01:54:58.605Z,18.20
2018-09-12T01:57:36.057Z,18.10
2018-09-12T02:00:16.825Z,18.00
2018-09-12T02:02:54.052Z,18.00
2018-09-12T02:05:30.471Z,18.00
2018-09-12T02:08:07.274Z,18.00
2018-09-12T02:10:43.624Z,18.00
2018-09-12T02:13:20.141Z,17.80
2018-09-12T02:15:56.526Z,17.80
2018-09-12T02:18:32.808Z,17.90
2018-09-12T02:21:09.541Z,17.90
2018-09-12T02:23:46.829Z,17.80
2018-09-12T02:26:25.285Z,17.90
2018-09-12T02:29:03.656Z,17.90
2018-09-12T02:31:40.822Z,17.90
2018-09-12T02:34:17.442Z,17.70
2018-09-12T02:36:54.926Z,17.60
2018-09-12T02:39:32.136Z,17.60
2018-09-12T02:42:09.496Z,17.60
2018-09-12T02:44:46.808Z,17.50
2018-09-12T02:47:29.522Z,17.40
2018-09-12T02:50:12.072Z,17.30
2018-09-12T02:52:49.317Z,17.10
2018-09-12T02:55:26.197Z,17.10
2018-09-12T02:58:02.116Z,17.00
2018-09-12T03:00:40.112Z,17.00
2018-09-12T03:03:16.411Z,16.90
2018-09-12T03:05:53.569Z,17.10
2018-09-12T03:08:30.388Z,17.00
2018-09-12T03:11:07.413Z,17.00
2018-09-12T03:13:43.953Z,16.90
2018-09-12T03:16:22.255Z,16.80
2018-09-12T03:19:00.007Z,16.80
2018-09-12T03:21:36.190Z,16.70
2018-09-12T03:24:13.745Z,16.60
2018-09-12T03:26:51.376Z,16.60
2018-09-12T03:29:27.439Z,16.60
2018-09-12T03:32:03.709Z,16.60
2018-09-12T03:34:41.095Z,16.60
2018-09-12T03:37:17.380Z,16.60
2018-09-12T03:39:55.811Z,16.50
2018-09-12T03:42:33.256Z,16.40
2018-09-12T03:45:11.371Z,16.40
2018-09-12T03:47:47.321Z,16.20
2018-09-12T03:50:24.218Z,16.20
2018-09-12T03:53:01.321Z,16.10
2018-09-12T03:55:38.051Z,16.10
2018-09-12T03:58:14.997Z,16.00
2018-09-12T04:00:51.071Z,16.00
2018-09-12T04:03:27.995Z,15.90
2018-09-12T04:06:04.853Z,15.90
2018-09-12T04:08:43.137Z,15.90
2018-09-12T04:11:19.834Z,15.90
2018-09-12T04:13:56.608Z,15.90
2018-09-12T04:16:32.975Z,15.90
2018-09-12T04:19:09.132Z,15.90
2018-09-12T04:21:45.057Z,15.90
2018-09-12T04:24:21.148Z,15.80
2018-09-12T04:26:57.286Z,15.80
2018-09-12T04:29:33.261Z,15.80
2018-09-12T04:32:10.650Z,15.80
2018-09-12T04:34:47.189Z,15.70
2018-09-12T04:37:23.975Z,15.70
2018-09-12T04:40:00.565Z,15.70
2018-09-12T04:42:38.250Z,15.60
2018-09-12T04:45:16.164Z,15.60
2018-09-12T04:47:52.121Z,15.60
2018-09-12T04:50:27.986Z,15.60
2018-09-12T04:53:04.616Z,15.60
2018-09-12T04:55:40.976Z,15.60
2018-09-12T04:58:16.767Z,15.60
2018-09-12T05:00:53.032Z,15.70
2018-09-12T05:03:29.201Z,15.70
2018-09-12T05:06:05.457Z,15.70
2018-09-12T05:08:41.514Z,15.70
2018-09-12T05:11:18.513Z,15.80
2018-09-12T05:13:54.867Z,15.80
2018-09-12T05:16:30.964Z,15.90
2018-09-12T05:19:06.773Z,16.00
2018-09-12T05:21:43.999Z,16.00
2018-09-12T05:24:24.111Z,16.10
2018-09-12T05:27:01.243Z,16.00
2018-09-12T05:29:37.298Z,16.10
2018-09-12T05:32:13.865Z,16.20
2018-09-12T05:34:50.681Z,16.40
2018-09-12T05:37:27.863Z,16.60
2018-09-12T05:40:05.380Z,16.80
2018-09-12T05:42:43.224Z,16.80
2018-09-12T05:45:19.341Z,16.90
2018-09-12T05:47:56.033Z,16.90
2018-09-12T05:50:33.213Z,16.90
2018-09-12T05:53:10.297Z,17.00
2018-09-12T05:55:47.034Z,17.10
2018-09-12T05:58:23.315Z,17.20
2018-09-12T06:01:01.960Z,17.30
2018-09-12T06:03:39.078Z,17.50
2018-09-12T06:06:15.341Z,17.60
2018-09-12T06:08:52.065Z,17.70
2018-09-12T06:11:28.091Z,17.80
2018-09-12T06:14:04.359Z,17.90
2018-09-12T06:16:42.433Z,18.00
2018-09-12T06:19:19.574Z,18.20
2018-09-12T06:21:57.238Z,18.20
2018-09-12T06:24:33.095Z,18.40
2018-09-12T06:27:09.663Z,18.50
2018-09-12T06:29:46.025Z,18.60
2018-09-12T06:32:23.332Z,18.90
2018-09-12T06:34:59.990Z,19.00
2018-09-12T06:37:36.113Z,19.30
2018-09-12T06:40:13.776Z,19.90
2018-09-12T06:42:51.309Z,20.40
2018-09-12T06:45:29.741Z,20.50
2018-09-12T06:48:07.725Z,20.40
2018-09-12T06:50:49.128Z,20.20
2018-09-12T06:53:26.949Z,20.80
2018-09-12T06:56:05.322Z,20.50
2018-09-12T06:58:43.089Z,20.90
2018-09-12T07:01:20.168Z,21.00
2018-09-12T07:03:58.049Z,21.10
2018-09-12T07:06:34.640Z,21.10
2018-09-12T07:09:11.597Z,21.20
2018-09-12T07:11:48.440Z,21.30
2018-09-12T07:14:25.114Z,21.40
2018-09-12T07:17:08.474Z,21.70
2018-09-12T07:19:45.373Z,22.00
2018-09-12T07:22:22.662Z,22.30
2018-09-12T07:25:00.206Z,22.50
2018-09-12T07:27:37.423Z,22.70
2018-09-12T07:30:14.741Z,23.20
2018-09-12T07:32:52.288Z,23.50
2018-09-12T07:35:30.284Z,23.50
2018-09-12T07:38:06.231Z,23.60
2018-09-12T07:40:43.407Z,24.00
2018-09-12T07:43:20.981Z,25.10
2018-09-12T07:46:00.350Z,26.70
2018-09-12T07:48:38.432Z,29.00
2018-09-12T07:51:15.892Z,31.10
2018-09-12T07:53:54.618Z,33.10
2018-09-12T07:56:32.265Z,34.20
2018-09-12T07:59:10.237Z,35.40
2018-09-12T08:01:47.094Z,35.90
2018-09-12T08:04:25.074Z,35.90
2018-09-12T08:07:04.050Z,36.80
2018-09-12T08:09:41.881Z,36.30
2018-09-12T08:12:20.610Z,35.60
2018-09-12T08:14:58.326Z,36.80
2018-09-12T08:17:35.806Z,37.40
2018-09-12T08:20:13.630Z,37.90
2018-09-12T08:22:51.109Z,37.10
2018-09-12T08:25:28.707Z,37.50
2018-09-12T08:28:05.732Z,37.80
2018-09-12T08:30:42.984Z,37.90
2018-09-12T08:33:21.004Z,38.30
2018-09-12T08:35:59.082Z,37.90
2018-09-12T08:38:36.289Z,38.50
2018-09-12T08:41:13.777Z,38.60
2018-09-12T08:43:51.461Z,38.60
2018-09-12T08:46:27.841Z,37.70
2018-09-12T08:49:05.406Z,37.60
2018-09-12T08:51:43.567Z,38.10
2018-09-12T08:54:22.017Z,38.10
2018-09-12T08:56:59.345Z,38.00
2018-09-12T08:59:36.778Z,38.30
2018-09-12T09:02:13.342Z,38.80
2018-09-12T09:04:51.588Z,38.80
2018-09-12T09:07:28.290Z,37.70
2018-09-12T09:10:05.324Z,37.00
2018-09-12T09:12:43.053Z,37.20
2018-09-12T09:15:20.853Z,37.00
2018-09-12T09:17:58.605Z,36.60
2018-09-12T09:20:35.918Z,36.60
2018-09-12T09:23:12.709Z,37.00
2018-09-12T09:25:50.515Z,38.10
2018-09-12T09:28:29.769Z,38.30
2018-09-12T09:31:07.404Z,38.80
2018-09-12T09:33:44.969Z,39.60
2018-09-12T09:36:21.273Z,39.20
2018-09-12T09:39:00.361Z,38.90
2018-09-12T09:41:36.872Z,39.30
2018-09-12T09:44:15.004Z,39.20
2018-09-12T09:46:52.523Z,39.60
2018-09-12T09:49:29.986Z,38.50
2018-09-12T09:52:08.530Z,37.90
2018-09-12T09:54:46.355Z,38.20
2018-09-12T09:57:24.403Z,39.20
2018-09-12T10:00:03.237Z,40.30
2018-09-12T10:02:42.049Z,40.50
2018-09-12T10:05:23.858Z,39.90
2018-09-12T10:08:06.041Z,39.00
2018-09-12T10:10:44.673Z,38.90
2018-09-12T10:13:22.677Z,39.20
2018-09-12T10:16:00.019Z,39.40
2018-09-12T10:18:37.215Z,39.10
2018-09-12T10:21:15.735Z,38.60
2018-09-12T10:23:52.241Z,38.30
2018-09-12T10:26:32.131Z,38.80
2018-09-12T10:29:09.522Z,39.30
2018-09-12T10:31:47.237Z,39.60
2018-09-12T10:34:26.395Z,39.90
2018-09-12T10:37:04.774Z,40.20
2018-09-12T10:39:42.152Z,39.90
2018-09-12T10:42:21.638Z,39.80
2018-09-12T10:44:58.985Z,40.10
2018-09-12T10:47:36.319Z,39.50
2018-09-12T10:50:13.399Z,39.10
2018-09-12T10:52:57.840Z,39.50
2018-09-12T10:55:35.965Z,39.50
2018-09-12T10:58:13.749Z,40.10
2018-09-12T11:00:52.649Z,41.00
2018-09-12T11:03:29.289Z,41.60
2018-09-12T11:06:06.463Z,42.10
2018-09-12T11:08:43.851Z,41.40
2018-09-12T11:11:21.874Z,40.90
2018-09-12T11:13:59.928Z,40.70
2018-09-12T11:16:36.871Z,40.90
2018-09-12T11:19:15.151Z,41.10
2018-09-12T11:21:52.381Z,40.90
2018-09-12T11:24:30.000Z,40.40
2018-09-12T11:27:09.394Z,39.70
2018-09-12T11:29:47.497Z,39.70
2018-09-12T11:32:24.660Z,39.80
2018-09-12T11:35:03.551Z,39.70
2018-09-12T11:37:40.737Z,40.00
2018-09-12T11:40:17.820Z,40.20
2018-09-12T11:42:55.354Z,40.20
2018-09-12T11:45:32.538Z,40.90
2018-09-12T11:48:10.300Z,40.50
2018-09-12T11:50:47.599Z,40.60
2018-09-12T11:53:24.304Z,40.20
2018-09-12T11:56:03.733Z,40.10
2018-09-12T11:58:40.462Z,39.90
2018-09-12T12:01:18.037Z,40.20
2018-09-12T12:03:57.281Z,40.40
2018-09-12T12:06:35.011Z,40.90
2018-09-12T12:09:13.252Z,40.10
2018-09-12T12:11:51.731Z,39.60
2018-09-12T12:14:28.511Z,39.40
2018-09-12T12:17:12.390Z,39.70
2018-09-12T12:19:50.970Z,40.20
2018-09-12T12:22:27.986Z,40.80
2018-09-12T12:25:06.053Z,40.60
2018-09-12T12:27:42.842Z,41.10
2018-09-12T12:30:22.259Z,40.70
2018-09-12T12:33:01.608Z,40.60
2018-09-12T12:35:39.294Z,40.50
2018-09-12T12:38:17.789Z,40.70
2018-09-12T12:40:57.188Z,40.10
2018-09-12T12:43:35.143Z,39.90
2018-09-12T12:46:13.008Z,40.40
2018-09-12T12:48:50.934Z,40.70
2018-09-12T12:51:27.581Z,40.60
2018-09-12T12:54:05.828Z,39.90
2018-09-12T12:56:42.791Z,40.00
2018-09-12T12:59:21.158Z,40.40
2018-09-12T13:01:57.656Z,39.70
2018-09-12T13:04:35.566Z,39.50
2018-09-12T13:07:13.877Z,39.70
2018-09-12T13:09:53.949Z,39.80
2018-09-12T13:12:31.479Z,39.50
2018-09-12T13:15:09.023Z,38.90
2018-09-12T13:17:45.919Z,38.80
2018-09-12T13:20:22.993Z,39.00
2018-09-12T13:23:01.328Z,39.10
2018-09-12T13:25:39.227Z,38.80
2018-09-12T13:28:15.913Z,38.90
2018-09-12T13:30:53.286Z,39.40
2018-09-12T13:33:31.043Z,39.30
2018-09-12T13:36:11.900Z,38.90
2018-09-12T13:38:50.113Z,39.20
2018-09-12T13:41:27.556Z,38.90
2018-09-12T13:44:04.279Z,38.30
2018-09-12T13:46:41.657Z,37.70
2018-09-12T13:49:20.062Z,38.00
2018-09-12T13:51:57.714Z,37.80
2018-09-12T13:54:37.052Z,37.70
2018-09-12T13:57:15.303Z,37.40
2018-09-12T13:59:52.139Z,37.70
2018-09-12T14:02:30.516Z,37.00
2018-09-12T14:05:07.215Z,36.50
2018-09-12T14:07:45.121Z,36.00
2018-09-12T14:10:21.857Z,36.80
2018-09-12T14:13:00.835Z,36.70
2018-09-12T14:15:37.317Z,37.20
2018-09-12T14:18:15.041Z,37.30
2018-09-12T14:20:52.290Z,37.00
2018-09-12T14:23:28.520Z,37.20
2018-09-12T14:26:06.922Z,37.30
2018-09-12T14:28:44.265Z,37.60
2018-09-12T14:31:23.053Z,37.00
2018-09-12T14:34:01.962Z,36.80
2018-09-12T14:36:39.474Z,36.80
2018-09-12T14:39:16.052Z,37.00
2018-09-12T14:41:54.632Z,37.20
2018-09-12T14:44:32.436Z,37.00
2018-09-12T14:47:11.673Z,36.60
2018-09-12T14:49:49.285Z,36.20
2018-09-12T14:52:26.488Z,35.90
2018-09-12T14:55:04.237Z,35.60
2018-09-12T14:57:42.432Z,35.30
2018-09-12T15:00:26.555Z,35.50
2018-09-12T15:03:05.521Z,35.40
2018-09-12T15:05:43.478Z,35.40
2018-09-12T15:08:20.091Z,34.90
2018-09-12T15:10:59.042Z,34.50
2018-09-12T15:13:35.953Z,34.10
2018-09-12T15:16:14.005Z,34.00
2018-09-12T15:18:50.504Z,33.80
2018-09-12T15:21:27.249Z,33.60
2018-09-12T15:24:08.105Z,33.30
2018-09-12T15:26:45.921Z,33.20
2018-09-12T15:29:22.545Z,33.10
2018-09-12T15:31:58.712Z,32.80
2018-09-12T15:34:36.517Z,32.60
2018-09-12T15:37:14.372Z,32.40
2018-09-12T15:39:51.844Z,31.90
2018-09-12T15:42:30.154Z,31.90
2018-09-12T15:45:05.922Z,31.70
2018-09-12T15:47:44.801Z,31.30
2018-09-12T15:50:23.699Z,30.90
2018-09-12T15:53:01.017Z,30.60
2018-09-12T15:55:38.825Z,30.20
2018-09-12T15:58:16.812Z,29.90
2018-09-12T16:00:55.788Z,29.70
2018-09-12T16:03:32.759Z,29.50
2018-09-12T16:06:09.931Z,29.40
2018-09-12T16:08:46.800Z,29.30
2018-09-12T16:11:25.669Z,29.10
2018-09-12T16:14:04.066Z,29.00
2018-09-12T16:16:40.488Z,28.90
2018-09-12T16:19:17.269Z,28.80
2018-09-12T16:21:53.876Z,28.70
2018-09-12T16:24:32.765Z,28.60
2018-09-12T16:27:09.994Z,28.50
2018-09-12T16:29:48.880Z,28.40
2018-09-12T16:32:26.950Z,28.30
2018-09-12T16:35:04.584Z,28.20
2018-09-12T16:37:42.468Z,28.00
2018-09-12T16:40:21.036Z,27.80
2018-09-12T16:42:59.195Z,27.70
2018-09-12T16:45:36.400Z,27.60
2018-09-12T16:48:13.030Z,27.50
2018-09-12T16:50:50.283Z,27.30
2018-09-12T16:53:26.790Z,27.20
2018-09-12T16:56:03.229Z,27.00
2018-09-12T16:58:41.077Z,26.90
2018-09-12T17:01:18.767Z,26.80
2018-09-12T17:03:55.804Z,26.60
2018-09-12T17:06:32.738Z,26.50
2018-09-12T17:09:11.594Z,26.50
2018-09-12T17:11:47.961Z,26.30
2018-09-12T17:14:26.004Z,26.20
2018-09-12T17:17:03.481Z,26.10
2018-09-12T17:19:40.273Z,25.90
2018-09-12T17:22:17.110Z,25.80
2018-09-12T17:24:54.607Z,25.60
2018-09-12T17:27:31.874Z,25.50
2018-09-12T17:30:07.742Z,25.40
2018-09-12T17:32:46.358Z,25.20
2018-09-12T17:35:23.258Z,25.10
2018-09-12T17:38:00.274Z,25.00
2018-09-12T17:40:40.240Z,24.80
2018-09-12T17:43:17.203Z,24.70
2018-09-12T17:45:53.781Z,24.60
2018-09-12T17:48:32.129Z,24.40
2018-09-12T17:51:09.817Z,24.30
2018-09-12T17:53:50.516Z,24.30
2018-09-12T17:56:27.360Z,24.20
2018-09-12T17:59:06.770Z,24.10
2018-09-12T18:01:44.736Z,23.90
2018-09-12T18:04:23.294Z,23.80
2018-09-12T18:07:01.414Z,23.70
2018-09-12T18:09:39.410Z,23.50
2018-09-12T18:12:20.228Z,23.60
2018-09-12T18:14:57.461Z,23.50
2018-09-12T18:17:34.897Z,23.40
2018-09-12T18:20:13.901Z,23.30
2018-09-12T18:22:51.361Z,23.20
2018-09-12T18:25:31.161Z,23.20
2018-09-12T18:28:07.694Z,23.10
2018-09-12T18:30:49.316Z,23.00
2018-09-12T18:33:26.812Z,23.00
2018-09-12T18:36:04.718Z,22.90
2018-09-12T18:38:41.011Z,22.90
2018-09-12T18:41:17.721Z,22.80
2018-09-12T18:43:55.637Z,22.70
2018-09-12T18:46:34.609Z,22.60
2018-09-12T18:49:14.078Z,22.50
2018-09-12T18:51:52.132Z,22.40
2018-09-12T18:54:30.329Z,22.40
2018-09-12T18:57:07.042Z,22.30
2018-09-12T18:59:43.536Z,22.30
2018-09-12T19:02:20.044Z,22.20
2018-09-12T19:04:57.599Z,22.10
2018-09-12T19:07:34.683Z,22.10
2018-09-12T19:10:12.587Z,22.10
2018-09-12T19:12:53.400Z,22.10
2018-09-12T19:15:30.248Z,22.10
2018-09-12T19:18:06.814Z,22.10
2018-09-12T19:20:43.694Z,22.00
2018-09-12T19:23:20.945Z,21.90
2018-09-12T19:25:57.821Z,21.90
2018-09-12T19:28:33.536Z,21.80
2018-09-12T19:31:10.479Z,21.80
2018-09-12T19:33:47.714Z,21.70
2018-09-12T19:36:25.164Z,21.70
2018-09-12T19:39:01.283Z,21.60
2018-09-12T19:41:37.996Z,21.60
2018-09-12T19:44:14.133Z,21.70
2018-09-12T19:46:51.889Z,21.90
2018-09-12T19:49:29.015Z,22.10
2018-09-12T19:52:06.665Z,22.10
2018-09-12T19:54:42.459Z,22.10
2018-09-12T19:57:19.877Z,22.10
2018-09-12T19:59:56.579Z,22.10
2018-09-12T20:02:34.365Z,22.00
2018-09-12T20:05:12.776Z,21.90
2018-09-12T20:07:50.091Z,21.90
2018-09-12T20:10:26.834Z,21.90
2018-09-12T20:13:04.357Z,21.90
2018-09-12T20:15:51.006Z,21.80
2018-09-12T20:18:27.938Z,21.80
2018-09-12T20:21:07.527Z,21.80
2018-09-12T20:23:43.998Z,21.80
2018-09-12T20:26:20.919Z,21.80
2018-09-12T20:28:56.962Z,21.70
2018-09-12T20:31:35.375Z,21.70
2018-09-12T20:34:12.923Z,21.60
2018-09-12T20:36:49.899Z,21.60
2018-09-12T20:39:27.094Z,21.60
2018-09-12T20:42:04.259Z,21.60
2018-09-12T20:44:40.988Z,21.50
2018-09-12T20:47:18.849Z,21.50
2018-09-12T20:49:55.849Z,21.40
2018-09-12T20:52:33.315Z,21.40
2018-09-12T20:55:09.189Z,21.30
2018-09-12T20:57:47.020Z,21.30
2018-09-12T21:00:23.332Z,21.20
2018-09-12T21:02:59.992Z,21.10
2018-09-12T21:05:36.325Z,21.10
2018-09-12T21:08:13.835Z,21.00
2018-09-12T21:10:51.220Z,20.90
2018-09-12T21:13:31.127Z,20.90
2018-09-12T21:16:08.564Z,20.80
2018-09-12T21:18:45.237Z,20.80
2018-09-12T21:21:21.812Z,20.80
2018-09-12T21:23:58.172Z,20.80
2018-09-12T21:26:34.800Z,20.80
2018-09-12T21:29:13.060Z,20.70
2018-09-12T21:31:49.156Z,20.70
2018-09-12T21:34:26.670Z,20.60
2018-09-12T21:37:02.591Z,20.50
2018-09-12T21:39:38.524Z,20.50
2018-09-12T21:42:15.775Z,20.50
2018-09-12T21:44:51.963Z,20.40
2018-09-12T21:47:28.346Z,20.30
2018-09-12T21:50:05.380Z,20.20
2018-09-12T21:52:42.905Z,20.20
2018-09-12T21:55:20.191Z,20.10
2018-09-12T21:57:59.392Z,20.10
2018-09-12T22:00:36.256Z,20.00
2018-09-12T22:03:12.991Z,20.00
2018-09-12T22:05:50.428Z,19.90
2018-09-12T22:08:26.701Z,19.90
2018-09-12T22:11:03.484Z,19.90
2018-09-12T22:13:40.753Z,19.80
2018-09-12T22:16:16.864Z,19.80
2018-09-12T22:18:52.815Z,19.70
2018-09-12T22:21:29.144Z,19.70
2018-09-12T22:24:05.652Z,19.60
2018-09-12T22:26:41.611Z,19.60
2018-09-12T22:29:18.005Z,19.60
2018-09-12T22:31:54.405Z,19.60
2018-09-12T22:34:31.484Z,19.60
2018-09-12T22:37:08.465Z,19.60
2018-09-12T22:39:44.768Z,19.50
2018-09-12T22:42:22.019Z,19.50
2018-09-12T22:44:57.730Z,19.40
2018-09-12T22:47:33.935Z,19.30
2018-09-12T22:50:10.907Z,19.20
2018-09-12T22:52:47.279Z,19.20
2018-09-12T22:55:23.329Z,19.10
2018-09-12T22:58:01.043Z,19.10
2018-09-12T23:00:36.824Z,19.00
2018-09-12T23:03:13.702Z,19.10
2018-09-12T23:05:49.938Z,19.00
2018-09-12T23:08:26.698Z,19.00
2018-09-12T23:11:03.064Z,19.00
2018-09-12T23:13:39.673Z,18.90
2018-09-12T23:16:16.759Z,18.80
2018-09-12T23:18:54.666Z,18.80
2018-09-12T23:21:32.727Z,18.80
2018-09-12T23:24:09.708Z,18.80
2018-09-12T23:26:45.817Z,18.70
2018-09-12T23:29:23.228Z,18.70
2018-09-12T23:32:00.950Z,18.60
2018-09-12T23:34:37.675Z,18.50
2018-09-12T23:37:14.804Z,18.50
2018-09-12T23:39:50.590Z,18.50
2018-09-12T23:42:26.569Z,18.50
2018-09-12T23:45:03.538Z,18.50
2018-09-12T23:47:40.261Z,18.50
2018-09-12T23:50:16.628Z,18.50
2018-09-12T23:52:53.051Z,18.30
2018-09-12T23:55:29.045Z,18.30
2018-09-12T23:58:05.788Z,18.20
